Lufkin, Texas
Current Conditions -  °F | °C
As of 7:27 AM on Sunday 23 Nov 2014 (Local Time) from KLFK Reporting Station
Light Rain Light Rain  
Wind Chill: 64°   Ceiling: 4200
Heat Index: 64°   Visibility: 10mi
Dew Point: 60°   Wind: 7mph
Humidity: 87%   Direction: 200°SSW
Pressure: 29.62"   Gusts: NA
Location:  31.34°N, 94.72°W
Report Text: KLFK 231327Z AUTO 20006KT 10SM -RA SCT006 BKN042 OVC100 18/16 A2962 RMK AO2 P0005 T01780156
Loading
Personal Weather Stations






























Interactive Weather Map New forecast layout! Learn more

10-Day Weather Forecast

Advertisements
Track Severe Weather on mobile